Alvwood, Minnesota
Current Conditions -  °F | °C
As of 8:09 AM on Monday 22 Dec 2014 (Local Time) from KVWU Reporting Station
Haze Haze  
Wind Chill:   Ceiling: 3000
Heat Index:   Visibility: 3mi
Dew Point:   Wind: 0mph
Humidity: 100%   Direction: NA
Pressure: 29.61"   Gusts: NA
Location:  47.7306°N, 94.3762°W
Report Text: KVWU 221409Z AUTO 00000KT 3SM BR SCT005 SCT025 OVC030 01/01 A2961 RMK AO2
Loading
Personal Weather Stations






























Interactive Weather Map New forecast layout! Learn more

10-Day Weather Forecast

Advertisements
Track Severe Weather on mobile